Observation data for Wolfforth on 11/09/2019      Previous  Date       Current Mesonet Observations  Soil Data  Daily Summary Page  Observations in Plain Language
KWOS 090600Z 24005KT 05/04 A303 RMK A01 T00470044  RH  100%=      5-min Rain = 0
KWOS 090605Z 24005KT 05/04 A303 RMK A01 T00450042  RH  100%=      5-min Rain = 0
KWOS 090610Z 24006KT 04/04 A303 RMK A01 T00440041  RH  100%=      5-min Rain = 0
KWOS 090615Z 24006KT 04/04 A303 RMK A01 T00440041  RH  100%=      5-min Rain = 0
KWOS 090620Z 24005KT 04/04 A303 RMK A01 T00430040  RH  100%=      5-min Rain = 0
KWOS 090625Z 24006KT 04/04 A3029 RMK A01 T00420039  RH  100%=      5-min Rain = 0
KWOS 090630Z 24005KT 04/04 A303 RMK A01 T00410039  RH  100%=      5-min Rain = 0
KWOS 090635Z 24007KT 04/04 A303 RMK A01 T00420039  RH  100%=      5-min Rain = 0
KWOS 090640Z 23006KT 04/04 A303 RMK A01 T00420039  RH  100%=      5-min Rain = 0
KWOS 090645Z 23006KT 04/04 A303 RMK A01 T00410038  RH  100%=      5-min Rain = 0
KWOS 090650Z 23006KT 04/04 A3029 RMK A01 T00380036  RH  100%=      5-min Rain = 0
KWOS 090655Z 23007KT 04/04 A3029 RMK A01 T00370035  RH  100%=      5-min Rain = 0
KWOS 090700Z 22007KT 04/04 A3029 RMK A01 T00380035  RH  100%=      5-min Rain = 0
KWOS 090705Z 22008KT 04/04 A3029 RMK A01 T00380035  RH  100%=      5-min Rain = 0
KWOS 090710Z 22007KT 04/04 A3029 RMK A01 T00380035  RH  100%=      5-min Rain = 0
KWOS 090715Z 23007KT 04/04 A3029 RMK A01 T00390037  RH  100%=      5-min Rain = 0
KWOS 090720Z 23007KT 04/04 A3029 RMK A01 T00410038  RH  100%=      5-min Rain = 0
KWOS 090725Z 23007KT 04/04 A3029 RMK A01 T00410038  RH  100%=      5-min Rain = 0
KWOS 090730Z 23007KT 04/04 A3029 RMK A01 T00430041  RH  100%=      5-min Rain = 0
KWOS 090735Z 23008KT 05/04 A3028 RMK A01 T00450042  RH  100%=      5-min Rain = 0
KWOS 090740Z 23007KT 05/04 A3028 RMK A01 T00450042  RH  100%=      5-min Rain = 0
KWOS 090745Z 23008KT 04/04 A3028 RMK A01 T00440041  RH  100%=      5-min Rain = 0
KWOS 090750Z 23007KT 04/04 A3028 RMK A01 T00440041  RH  100%=      5-min Rain = 0
KWOS 090755Z 23007KT 04/04 A3028 RMK A01 T00440041  RH  100%=      5-min Rain = 0
KWOS 090800Z 24006KT 04/04 A3028 RMK A01 T00440041  RH  100%=      5-min Rain = 0
KWOS 090805Z 24006KT 04/04 A3027 RMK A01 T00440042  RH  100%=      5-min Rain = 0
KWOS 090810Z 24007KT 05/04 A3027 RMK A01 T00450042  RH  100%=      5-min Rain = 0
KWOS 090815Z 24006KT 04/04 A3026 RMK A01 T00440041  RH  100%=      5-min Rain = 0
KWOS 090820Z 25006KT 04/04 A3026 RMK A01 T00440041  RH  100%=      5-min Rain = 0
KWOS 090825Z 24007KT 04/04 A3026 RMK A01 T00440041  RH  100%=      5-min Rain = 0
KWOS 090830Z 25006KT 04/04 A3026 RMK A01 T00440041  RH  100%=      5-min Rain = 0
KWOS 090835Z 25006KT 04/04 A3026 RMK A01 T00430040  RH  100%=      5-min Rain = 0
KWOS 090840Z 24006KT 04/04 A3026 RMK A01 T00420039  RH  100%=      5-min Rain = 0
KWOS 090845Z 24006KT 04/04 A3026 RMK A01 T00410038  RH  100%=      5-min Rain = 0
KWOS 090850Z 25005KT 04/04 A3026 RMK A01 T00400038  RH  100%=      5-min Rain = 0
KWOS 090855Z 25004KT 04/04 A3026 RMK A01 T00390037  RH  100%=      5-min Rain = 0
KWOS 090900Z 26005KT 04/04 A3026 RMK A01 T00380035  RH  100%=      5-min Rain = 0
KWOS 090905Z 26005KT 04/03 A3026 RMK A01 T00360033  RH  100%=      5-min Rain = 0
KWOS 090910Z 26004KT 03/03 A3026 RMK A01 T00330031  RH  100%=      5-min Rain = 0
KWOS 090915Z 28003KT 03/03 A3026 RMK A01 T00310029  RH  100%=      5-min Rain = 0
KWOS 090920Z 30004KT 03/02 A3026 RMK A01 T00270024  RH  100%=      5-min Rain = 0
KWOS 090925Z 31004KT 02/02 A3026 RMK A01 T00230021  RH  100%=      5-min Rain = 0
KWOS 090930Z 30005KT 02/02 A3025 RMK A01 T00200018  RH  100%=      5-min Rain = 0
KWOS 090935Z 30004KT 02/02 A3025 RMK A01 T00210019  RH  100%=      5-min Rain = 0
KWOS 090940Z 29004KT 02/02 A3025 RMK A01 T00230021  RH  100%=      5-min Rain = 0
KWOS 090945Z 29004KT 02/02 A3025 RMK A01 T00240022  RH  100%=      5-min Rain = 0
KWOS 090950Z 27005KT 02/02 A3025 RMK A01 T00230021  RH  100%=      5-min Rain = 0
KWOS 090955Z 26006KT 02/02 A3025 RMK A01 T00220020  RH  100%=      5-min Rain = 0
KWOS 091000Z 26006KT 02/02 A3025 RMK A01 T00230021  RH  100%=      5-min Rain = 0
KWOS 091005Z 28005KT 03/02 A3025 RMK A01 T00250022  RH  100%=      5-min Rain = 0
KWOS 091010Z 29004KT 02/02 A3025 RMK A01 T00240022  RH  100%=      5-min Rain = 0
KWOS 091015Z 30004KT 02/02 A3025 RMK A01 T00220020  RH  100%=      5-min Rain = 0
KWOS 091020Z 28004KT 02/02 A3025 RMK A01 T00200018  RH  100%=      5-min Rain = 0
KWOS 091025Z 28004KT 02/02 A3025 RMK A01 T00190016  RH  100%=      5-min Rain = 0
KWOS 091030Z 28003KT 02/02 A3025 RMK A01 T00180016  RH  100%=      5-min Rain = 0
KWOS 091035Z 28004KT 02/02 A3025 RMK A01 T00180016  RH  100%=      5-min Rain = 0
KWOS 091040Z 29004KT 02/02 A3025 RMK A01 T00180016  RH  100%=      5-min Rain = 0
KWOS 091045Z 29003KT 02/02 A3025 RMK A01 T00190017  RH  100%=      5-min Rain = 0
KWOS 091050Z 29003KT 02/02 A3025 RMK A01 T00180016  RH  100%=      5-min Rain = 0
KWOS 091055Z 28003KT 02/02 A3025 RMK A01 T00170015  RH  100%=      5-min Rain = 0
KWOS 091100Z 27003KT 02/02 A3025 RMK A01 T00180015  RH  100%=      5-min Rain = 0
KWOS 091105Z 28004KT 02/02 A3025 RMK A01 T00190016  RH  100%=      5-min Rain = 0
KWOS 091110Z 28005KT 02/02 A3025 RMK A01 T00180016  RH  100%=      5-min Rain = 0
KWOS 091115Z 28005KT 02/02 A3025 RMK A01 T00170015  RH  100%=      5-min Rain = 0
KWOS 091120Z 30004KT 02/02 A3025 RMK A01 T00180016  RH  100%=      5-min Rain = 0
KWOS 091125Z 30005KT 02/02 A3025 RMK A01 T00210019  RH  100%=      5-min Rain = 0
KWOS 091130Z 30004KT 03/02 A3025 RMK A01 T00250022  RH  100%=      5-min Rain = 0
KWOS 091135Z 32003KT 02/02 A3025 RMK A01 T00220020  RH  100%=      5-min Rain = 0
KWOS 091140Z 31004KT 02/02 A3025 RMK A01 T00190017  RH  100%=      5-min Rain = 0
KWOS 091145Z 29005KT 02/02 A3025 RMK A01 T00220020  RH  100%=      5-min Rain = 0
KWOS 091150Z 28005KT 02/02 A3025 RMK A01 T00230021  RH  100%=      5-min Rain = 0
KWOS 091155Z 28005KT 02/02 A3025 RMK A01 T00230021  RH  100%=      5-min Rain = 0
KWOS 091200Z 27005KT 02/02 A3025 RMK A01 T00240021  RH  100%=      5-min Rain = 0
KWOS 091205Z 27004KT 02/02 A3025 RMK A01 T00230021  RH  100%=      5-min Rain = 0
KWOS 091210Z 28005KT 02/02 A3025 RMK A01 T00220020  RH  100%=      5-min Rain = 0
KWOS 091215Z 27004KT 02/02 A3025 RMK A01 T00220020  RH  100%=      5-min Rain = 0
KWOS 091220Z 28003KT 02/02 A3025 RMK A01 T00210019  RH  100%=      5-min Rain = 0
KWOS 091225Z 28004KT 02/02 A3025 RMK A01 T00210019  RH  100%=      5-min Rain = 0
KWOS 091230Z 28004KT 02/02 A3025 RMK A01 T00220020  RH  100%=      5-min Rain = 0
KWOS 091235Z 28006KT 03/03 A3025 RMK A01 T00280025  RH  100%=      5-min Rain = 0
KWOS 091240Z 28005KT 03/03 A3025 RMK A01 T00310029  RH  100%=      5-min Rain = 0
KWOS 091245Z 28004KT 03/03 A3026 RMK A01 T00300028  RH  100%=      5-min Rain = 0
KWOS 091250Z 29004KT 03/03 A3026 RMK A01 T00300028  RH  100%=      5-min Rain = 0
KWOS 091255Z 28005KT 03/03 A3026 RMK A01 T00310029  RH  100%=      5-min Rain = 0
KWOS 091300Z 28005KT 03/03 A3026 RMK A01 T00310029  RH  100%=      5-min Rain = 0
KWOS 091305Z 29005KT 03/03 A3026 RMK A01 T00310028  RH  100%=      5-min Rain = 0
KWOS 091310Z 28006KT 03/03 A3026 RMK A01 T00300027  RH  100%=      5-min Rain = 0.01
KWOS 091315Z 28006KT 03/03 A3026 RMK A01 T00310029  RH  100%=      5-min Rain = 0
KWOS 091320Z 28006KT 03/03 A3026 RMK A01 T00330030  RH  100%=      5-min Rain = 0
KWOS 091325Z 28006KT 03/03 A3026 RMK A01 T00340032  RH  100%=      5-min Rain = 0
KWOS 091330Z 28007KT 04/04 A3026 RMK A01 T00370035  RH  100%=      5-min Rain = 0
KWOS 091335Z 29006KT 04/04 A3026 RMK A01 T00390036  RH  100%=      5-min Rain = 0
KWOS 091340Z 29007KT 04/04 A3026 RMK A01 T00410038  RH  100%=      5-min Rain = 0
KWOS 091345Z 29006KT 04/04 A3026 RMK A01 T00420039  RH  100%=      5-min Rain = 0
KWOS 091350Z 29007KT 04/04 A3026 RMK A01 T00430040  RH  100%=      5-min Rain = 0
KWOS 091355Z 29006KT 05/04 A3026 RMK A01 T00450042  RH  100%=      5-min Rain = 0
KWOS 091400Z 29006KT 05/04 A3026 RMK A01 T00460043  RH  100%=      5-min Rain = 0
KWOS 091405Z 29005KT 05/04 A3026 RMK A01 T00470043  RH  099%=      5-min Rain = 0
KWOS 091410Z 29006KT 05/04 A3026 RMK A01 T00480043  RH  098%=      5-min Rain = 0
KWOS 091415Z 30006KT 05/04 A3026 RMK A01 T00490043  RH  098%=      5-min Rain = 0
KWOS 091420Z 30007KT 05/05 A3026 RMK A01 T00510045  RH  097%=      5-min Rain = 0
KWOS 091425Z 30008KT 05/04 A3026 RMK A01 T00520044  RH  097%=      5-min Rain = 0
KWOS 091430Z 30007KT 05/05 A3027 RMK A01 T00530045  RH  096%=      5-min Rain = 0
KWOS 091435Z 30007KT 06/05 A3026 RMK A01 T00550046  RH  096%=      5-min Rain = 0
KWOS 091440Z 30007KT 06/05 A3026 RMK A01 T00590049  RH  096%=      5-min Rain = 0
KWOS 091445Z 29007KT 06/05 A3026 RMK A01 T00620052  RH  095%=      5-min Rain = 0
KWOS 091450Z 29006KT 07/06 A3027 RMK A01 T00660055  RH  095%=      5-min Rain = 0
KWOS 091455Z 30007KT 07/06 A3027 RMK A01 T00690057  RH  094%=      5-min Rain = 0
KWOS 091500Z 30006KT 07/06 A3027 RMK A01 T00720059  RH  094%=      5-min Rain = 0
KWOS 091505Z 29006KT 08/06 A3027 RMK A01 T00750061  RH  094%=      5-min Rain = 0
KWOS 091510Z 30006KT 08/06 A3027 RMK A01 T00780064  RH  093%=      5-min Rain = 0
KWOS 091515Z 31006KT 08/07 A3027 RMK A01 T00810065  RH  092%=      5-min Rain = 0
KWOS 091520Z 31006KT 08/07 A3027 RMK A01 T00820065  RH  092%=      5-min Rain = 0
KWOS 091525Z 31006KT 08/07 A3028 RMK A01 T00830065  RH  091%=      5-min Rain = 0
KWOS 091530Z 31007KT 09/07 A3028 RMK A01 T00860067  RH  090%=      5-min Rain = 0
KWOS 091535Z 30006KT 09/07 A3028 RMK A01 T00900070  RH  090%=      5-min Rain = 0
KWOS 091540Z 30005KT 09/07 A3028 RMK A01 T00940073  RH  089%=      5-min Rain = 0
KWOS 091545Z 31005KT 09/07 A3028 RMK A01 T00940072  RH  088%=      5-min Rain = 0
KWOS 091550Z 31005KT 10/08 A3028 RMK A01 T00980076  RH  088%=      5-min Rain = 0
KWOS 091555Z 32004KT 10/08 A3028 RMK A01 T01010077  RH  087%=      5-min Rain = 0
KWOS 091600Z 31004KT 10/08 A3028 RMK A01 T01030078  RH  087%=      5-min Rain = 0
KWOS 091605Z 30003KT 11/08 A3028 RMK A01 T01050080  RH  087%=      5-min Rain = 0
KWOS 091610Z 27004KT 11/08 A3028 RMK A01 T01090081  RH  086%=      5-min Rain = 0
KWOS 091615Z 28004KT 11/08 A3028 RMK A01 T01110082  RH  085%=      5-min Rain = 0
KWOS 091620Z 27005KT 11/08 A3028 RMK A01 T01140084  RH  084%=      5-min Rain = 0
KWOS 091625Z 26005KT 12/09 A3027 RMK A01 T01170085  RH  083%=      5-min Rain = 0
KWOS 091630Z 24005KT 12/09 A3027 RMK A01 T01190087  RH  083%=      5-min Rain = 0
KWOS 091635Z 24005KT 12/09 A3027 RMK A01 T01220090  RH  083%=      5-min Rain = 0
KWOS 091640Z 25005KT 13/09 A3027 RMK A01 T01250091  RH  082%=      5-min Rain = 0
KWOS 091645Z 24005KT 13/09 A3027 RMK A01 T01270092  RH  081%=      5-min Rain = 0
KWOS 091650Z 25005KT 13/10 A3027 RMK A01 T01300095  RH  081%=      5-min Rain = 0
KWOS 091655Z 25005KT 13/09 A3027 RMK A01 T01320094  RH  081%=      5-min Rain = 0
KWOS 091700Z 26005KT 14/10 A3027 RMK A01 T01350097  RH  080%=      5-min Rain = 0
KWOS 091705Z 26005KT 14/10 A3027 RMK A01 T01380097  RH  079%=      5-min Rain = 0
KWOS 091710Z 25005KT 14/10 A3027 RMK A01 T01400098  RH  078%=      5-min Rain = 0
KWOS 091715Z 25005KT 14/10 A3027 RMK A01 T01440099  RH  077%=      5-min Rain = 0
KWOS 091720Z 26005KT 15/10 A3026 RMK A01 T01450097  RH  075%=      5-min Rain = 0
KWOS 091725Z 24006KT 15/10 A3026 RMK A01 T01490100  RH  075%=      5-min Rain = 0
KWOS 091730Z 24006KT 15/10 A3026 RMK A01 T01500098  RH  073%=      5-min Rain = 0
KWOS 091735Z 25005KT 15/10 A3025 RMK A01 T01540102  RH  074%=      5-min Rain = 0
KWOS 091740Z 25008KT 16/10 A3025 RMK A01 T01550099  RH  072%=      5-min Rain = 0
KWOS 091745Z 24007KT 16/10 A3025 RMK A01 T01550099  RH  071%=      5-min Rain = 0
KWOS 091750Z 25008KT 16/10 A3025 RMK A01 T01580099  RH  070%=      5-min Rain = 0
KWOS 091755Z 25007KT 16/10 A3025 RMK A01 T01590100  RH  070%=      5-min Rain = 0
KWOS 091800Z 26008KT 16/10 A3025 RMK A01 T01610102  RH  070%=      5-min Rain = 0
KWOS 091805Z 25007KT 17/10 A3024 RMK A01 T01650102  RH  069%=      5-min Rain = 0
KWOS 091810Z 24007KT 17/10 A3024 RMK A01 T01670100  RH  067%=      5-min Rain = 0
KWOS 091815Z 23008KT 17/10 A3024 RMK A01 T01710103  RH  066%=      5-min Rain = 0
KWOS 091820Z 24008KT 17/10 A3023 RMK A01 T01710100  RH  065%=      5-min Rain = 0
KWOS 091825Z 23009KT 17/10 A3023 RMK A01 T01730099  RH  064%=      5-min Rain = 0
KWOS 091830Z 24009KT 18/10 A3022 RMK A01 T01750100  RH  064%=      5-min Rain = 0
KWOS 091835Z 23009KT 18/10 A3022 RMK A01 T01760102  RH  064%=      5-min Rain = 0
KWOS 091840Z 24010KT 18/10 A3022 RMK A01 T01770096  RH  061%=      5-min Rain = 0
KWOS 091845Z 23009KT 18/10 A3021 RMK A01 T01790098  RH  061%=      5-min Rain = 0
KWOS 091850Z 24009KT 18/10 A3021 RMK A01 T01820095  RH  059%=      5-min Rain = 0
KWOS 091855Z 24009KT 18/10 A3021 RMK A01 T01810100  RH  061%=      5-min Rain = 0
KWOS 091900Z 24008KT 18/10 A302 RMK A01 T01820098  RH  060%=      5-min Rain = 0
KWOS 091905Z 24009G14KT 19/10 A302 RMK A01 T01850095  RH  057%=      5-min Rain = 0
KWOS 091910Z 25009KT 19/09 A302 RMK A01 T01870087  RH  054%=      5-min Rain = 0
KWOS 091915Z 24009G14KT 19/09 A3019 RMK A01 T01880091  RH  055%=      5-min Rain = 0
KWOS 091920Z 24009KT 19/09 A3019 RMK A01 T01910090  RH  054%=      5-min Rain = 0
KWOS 091925Z 24008KT 19/09 A3019 RMK A01 T01930094  RH  054%=      5-min Rain = 0
KWOS 091930Z 25007KT 20/10 A3019 RMK A01 T01960096  RH  054%=      5-min Rain = 0
KWOS 091935Z 23008KT 20/09 A3018 RMK A01 T01950089  RH  052%=      5-min Rain = 0
KWOS 091940Z 24008KT 20/09 A3018 RMK A01 T01960088  RH  051%=      5-min Rain = 0
KWOS 091945Z 25008KT 20/08 A3018 RMK A01 T01970084  RH  049%=      5-min Rain = 0
KWOS 091950Z 24009KT 20/09 A3018 RMK A01 T01980085  RH  050%=      5-min Rain = 0
KWOS 091955Z 24009KT 20/08 A3017 RMK A01 T01990082  RH  048%=      5-min Rain = 0
KWOS 092000Z 24008KT 20/08 A3017 RMK A01 T02010081  RH  047%=      5-min Rain = 0
KWOS 092005Z 22009KT 20/08 A3017 RMK A01 T02010076  RH  045%=      5-min Rain = 0
KWOS 092010Z 24008KT 20/07 A3017 RMK A01 T02030074  RH  044%=      5-min Rain = 0
KWOS 092015Z 24008KT 20/08 A3017 RMK A01 T02040077  RH  045%=      5-min Rain = 0
KWOS 092020Z 23006KT 21/07 A3017 RMK A01 T02050074  RH  044%=      5-min Rain = 0
KWOS 092025Z 23007KT 21/08 A3016 RMK A01 T02060076  RH  044%=      5-min Rain = 0
KWOS 092030Z 24008KT 21/07 A3016 RMK A01 T02070073  RH  043%=      5-min Rain = 0
KWOS 092035Z 23007KT 21/07 A3016 RMK A01 T02070071  RH  042%=      5-min Rain = 0
KWOS 092040Z 22009KT 21/06 A3016 RMK A01 T02070064  RH  040%=      5-min Rain = 0
KWOS 092045Z 24007KT 21/06 A3016 RMK A01 T02060063  RH  040%=      5-min Rain = 0
KWOS 092050Z 24006KT 21/07 A3016 RMK A01 T02080067  RH  041%=      5-min Rain = 0
KWOS 092055Z 23008KT 21/06 A3015 RMK A01 T02090062  RH  039%=      5-min Rain = 0
KWOS 092100Z 23008KT 21/06 A3015 RMK A01 T02100056  RH  038%=      5-min Rain = 0
KWOS 092105Z 23009KT 21/05 A3015 RMK A01 T02110047  RH  035%=      5-min Rain = 0
KWOS 092110Z 22009KT 21/04 A3015 RMK A01 T02110043  RH  034%=      5-min Rain = 0
KWOS 092115Z 23008KT 21/05 A3015 RMK A01 T02120052  RH  036%=      5-min Rain = 0
KWOS 092120Z 23009KT 21/05 A3015 RMK A01 T02110048  RH  035%=      5-min Rain = 0
KWOS 092125Z 23007KT 21/05 A3014 RMK A01 T02110045  RH  034%=      5-min Rain = 0
KWOS 092130Z 22008KT 21/04 A3015 RMK A01 T02120042  RH  033%=      5-min Rain = 0
KWOS 092135Z 23009G14KT 21/04 A3014 RMK A01 T02110043  RH  034%=      5-min Rain = 0
KWOS 092140Z 24008KT 21/04 A3014 RMK A01 T02110036  RH  032%=      5-min Rain = 0
KWOS 092145Z 23009KT 21/05 A3014 RMK A01 T02110049  RH  035%=      5-min Rain = 0
KWOS 092150Z 23007KT 21/05 A3014 RMK A01 T02100051  RH  036%=      5-min Rain = 0
KWOS 092155Z 24009KT 21/04 A3014 RMK A01 T02100038  RH  033%=      5-min Rain = 0
KWOS 092200Z 24008KT 21/04 A3013 RMK A01 T02090044  RH  035%=      5-min Rain = 0
KWOS 092205Z 22008KT 21/04 A3013 RMK A01 T02090039  RH  033%=      5-min Rain = 0
KWOS 092210Z 22009KT 21/03 A3013 RMK A01 T02090033  RH  032%=      5-min Rain = 0
KWOS 092215Z 22009KT 21/04 A3013 RMK A01 T02080038  RH  033%=      5-min Rain = 0
KWOS 092220Z 23008KT 21/04 A3013 RMK A01 T02070040  RH  034%=      5-min Rain = 0
KWOS 092225Z 22006KT 21/05 A3013 RMK A01 T02070046  RH  035%=      5-min Rain = 0
KWOS 092230Z 21007KT 21/04 A3013 RMK A01 T02060043  RH  035%=      5-min Rain = 0
KWOS 092235Z 20008KT 20/04 A3013 RMK A01 T02040044  RH  036%=      5-min Rain = 0
KWOS 092240Z 21008KT 20/04 A3013 RMK A01 T02000042  RH  036%=      5-min Rain = 0
KWOS 092245Z 21007KT 20/05 A3013 RMK A01 T01990054  RH  040%=      5-min Rain = 0
KWOS 092250Z 21009KT 20/05 A3013 RMK A01 T01980047  RH  038%=      5-min Rain = 0
KWOS 092255Z 20006KT 20/06 A3013 RMK A01 T01970056  RH  041%=      5-min Rain = 0
KWOS 092300Z 20006KT 19/06 A3013 RMK A01 T01940057  RH  042%=      5-min Rain = 0
KWOS 092305Z 20007KT 19/07 A3013 RMK A01 T01900065  RH  045%=      5-min Rain = 0
KWOS 092310Z 20007KT 19/06 A3013 RMK A01 T01860064  RH  046%=      5-min Rain = 0
KWOS 092315Z 20007KT 18/07 A3013 RMK A01 T01820065  RH  047%=      5-min Rain = 0
KWOS 092320Z 20007KT 18/07 A3013 RMK A01 T01780069  RH  050%=      5-min Rain = 0
KWOS 092325Z 20006KT 17/07 A3013 RMK A01 T01740073  RH  053%=      5-min Rain = 0
KWOS 092330Z 20007KT 17/07 A3013 RMK A01 T01710072  RH  053%=      5-min Rain = 0
KWOS 092335Z 20007KT 17/07 A3013 RMK A01 T01700068  RH  052%=      5-min Rain = 0
KWOS 092340Z 19007KT 17/07 A3012 RMK A01 T01660066  RH  053%=      5-min Rain = 0
KWOS 092345Z 20007KT 16/07 A3013 RMK A01 T01620065  RH  054%=      5-min Rain = 0
KWOS 092350Z 20007KT 16/06 A3013 RMK A01 T01600064  RH  054%=      5-min Rain = 0
KWOS 092355Z 20007KT 16/06 A3012 RMK A01 T01560064  RH  055%=      5-min Rain = 0
KWOS 100000Z 19007KT 15/06 A3012 RMK A01 T01530063  RH  056%=      5-min Rain = 0
KWOS 100005Z 20007KT 15/07 A3012 RMK A01 T01490065  RH  059%=      5-min Rain = 0
KWOS 100010Z 20007KT 15/07 A3012 RMK A01 T01480065  RH  059%=      5-min Rain = 0
KWOS 100015Z 20008KT 15/07 A3012 RMK A01 T01480065  RH  059%=      5-min Rain = 0
KWOS 100020Z 20008KT 15/07 A3012 RMK A01 T01460066  RH  060%=      5-min Rain = 0
KWOS 100025Z 19007KT 14/07 A3012 RMK A01 T01430066  RH  062%=      5-min Rain = 0
KWOS 100030Z 19007KT 14/07 A3012 RMK A01 T01390066  RH  063%=      5-min Rain = 0
KWOS 100035Z 19007KT 14/07 A3012 RMK A01 T01370065  RH  063%=      5-min Rain = 0
KWOS 100040Z 19008KT 13/07 A3012 RMK A01 T01330065  RH  065%=      5-min Rain = 0
KWOS 100045Z 19008KT 14/07 A3013 RMK A01 T01350065  RH  064%=      5-min Rain = 0
KWOS 100050Z 19008KT 14/06 A3013 RMK A01 T01350064  RH  064%=      5-min Rain = 0
KWOS 100055Z 19007KT 13/06 A3013 RMK A01 T01330063  RH  064%=      5-min Rain = 0
KWOS 100100Z 19007KT 13/06 A3013 RMK A01 T01300063  RH  065%=      5-min Rain = 0
KWOS 100105Z 19007KT 13/06 A3013 RMK A01 T01290063  RH  066%=      5-min Rain = 0
KWOS 100110Z 18007KT 13/06 A3013 RMK A01 T01260062  RH  066%=      5-min Rain = 0
KWOS 100115Z 18007KT 12/06 A3013 RMK A01 T01240062  RH  067%=      5-min Rain = 0
KWOS 100120Z 18007KT 12/06 A3013 RMK A01 T01210064  RH  070%=      5-min Rain = 0
KWOS 100125Z 19008KT 12/06 A3013 RMK A01 T01200064  RH  070%=      5-min Rain = 0
KWOS 100130Z 19007KT 12/06 A3013 RMK A01 T01200064  RH  070%=      5-min Rain = 0
KWOS 100135Z 19007KT 12/06 A3013 RMK A01 T01180064  RH  071%=      5-min Rain = 0
KWOS 100140Z 19007KT 12/06 A3013 RMK A01 T01170064  RH  072%=      5-min Rain = 0
KWOS 100145Z 19008KT 12/07 A3013 RMK A01 T01160065  RH  073%=      5-min Rain = 0
KWOS 100150Z 18007KT 12/07 A3013 RMK A01 T01150066  RH  074%=      5-min Rain = 0
KWOS 100155Z 18007KT 11/07 A3013 RMK A01 T01120065  RH  075%=      5-min Rain = 0
KWOS 100200Z 18007KT 11/07 A3013 RMK A01 T01120066  RH  075%=      5-min Rain = 0
KWOS 100205Z 19008KT 11/07 A3013 RMK A01 T01100066  RH  076%=      5-min Rain = 0
KWOS 100210Z 19007KT 11/07 A3013 RMK A01 T01090066  RH  077%=      5-min Rain = 0
KWOS 100215Z 19007KT 11/07 A3013 RMK A01 T01080066  RH  077%=      5-min Rain = 0
KWOS 100220Z 19007KT 11/07 A3013 RMK A01 T01060067  RH  078%=      5-min Rain = 0
KWOS 100225Z 19007KT 11/07 A3013 RMK A01 T01060067  RH  079%=      5-min Rain = 0
KWOS 100230Z 19008KT 11/07 A3013 RMK A01 T01060067  RH  079%=      5-min Rain = 0
KWOS 100235Z 18007KT 11/07 A3013 RMK A01 T01050068  RH  080%=      5-min Rain = 0
KWOS 100240Z 18007KT 11/07 A3013 RMK A01 T01050068  RH  080%=      5-min Rain = 0
KWOS 100245Z 19007KT 10/07 A3013 RMK A01 T01040068  RH  081%=      5-min Rain = 0
KWOS 100250Z 18007KT 10/07 A3013 RMK A01 T01040069  RH  081%=      5-min Rain = 0
KWOS 100255Z 19007KT 10/07 A3013 RMK A01 T01030069  RH  082%=      5-min Rain = 0
KWOS 100300Z 19007KT 10/07 A3013 RMK A01 T01020070  RH  083%=      5-min Rain = 0
KWOS 100305Z 19007KT 10/07 A3013 RMK A01 T01020071  RH  083%=      5-min Rain = 0
KWOS 100310Z 20005KT 10/07 A3013 RMK A01 T00990069  RH  083%=      5-min Rain = 0
KWOS 100315Z 20005KT 09/07 A3013 RMK A01 T00920066  RH  086%=      5-min Rain = 0
KWOS 100320Z 20005KT 09/07 A3013 RMK A01 T00900067  RH  088%=      5-min Rain = 0
KWOS 100325Z 19006KT 09/07 A3013 RMK A01 T00900068  RH  088%=      5-min Rain = 0
KWOS 100330Z 20006KT 09/07 A3012 RMK A01 T00910069  RH  088%=      5-min Rain = 0
KWOS 100335Z 20006KT 09/07 A3012 RMK A01 T00900068  RH  088%=      5-min Rain = 0
KWOS 100340Z 20005KT 09/07 A3012 RMK A01 T00890067  RH  088%=      5-min Rain = 0
KWOS 100345Z 19005KT 09/07 A3012 RMK A01 T00880067  RH  089%=      5-min Rain = 0
KWOS 100350Z 19006KT 09/07 A3012 RMK A01 T00870066  RH  089%=      5-min Rain = 0
KWOS 100355Z 19006KT 09/07 A3012 RMK A01 T00850066  RH  090%=      5-min Rain = 0
KWOS 100400Z 20007KT 09/07 A3012 RMK A01 T00860067  RH  090%=      5-min Rain = 0
KWOS 100405Z 20007KT 09/07 A3012 RMK A01 T00870068  RH  090%=      5-min Rain = 0
KWOS 100410Z 20007KT 09/07 A3012 RMK A01 T00890069  RH  090%=      5-min Rain = 0
KWOS 100415Z 20008KT 09/07 A3012 RMK A01 T00910070  RH  089%=      5-min Rain = 0
KWOS 100420Z 20007KT 09/07 A3012 RMK A01 T00910070  RH  089%=      5-min Rain = 0
KWOS 100425Z 20007KT 09/07 A3012 RMK A01 T00920071  RH  089%=      5-min Rain = 0
KWOS 100430Z 20008KT 09/07 A3012 RMK A01 T00920070  RH  089%=      5-min Rain = 0
KWOS 100435Z 20008KT 09/07 A3012 RMK A01 T00910069  RH  089%=      5-min Rain = 0
KWOS 100440Z 21007KT 09/07 A3012 RMK A01 T00890068  RH  089%=      5-min Rain = 0
KWOS 100445Z 20006KT 09/07 A3012 RMK A01 T00850067  RH  090%=      5-min Rain = 0
KWOS 100450Z 21007KT 08/07 A3012 RMK A01 T00840067  RH  091%=      5-min Rain = 0
KWOS 100455Z 20007KT 08/07 A3012 RMK A01 T00830067  RH  091%=      5-min Rain = 0
KWOS 100500Z 20007KT 08/07 A3011 RMK A01 T00830067  RH  092%=      5-min Rain = 0
KWOS 100505Z 20007KT 08/07 A3011 RMK A01 T00830066  RH  092%=      5-min Rain = 0
KWOS 100510Z 21007KT 08/07 A3011 RMK A01 T00800065  RH  092%=      5-min Rain = 0
KWOS 100515Z 22006KT 08/06 A3011 RMK A01 T00780064  RH  093%=      5-min Rain = 0
KWOS 100520Z 21006KT 08/06 A3011 RMK A01 T00750062  RH  093%=      5-min Rain = 0
KWOS 100525Z 21006KT 07/06 A3011 RMK A01 T00730060  RH  094%=      5-min Rain = 0
KWOS 100530Z 21007KT 07/06 A3011 RMK A01 T00720060  RH  095%=      5-min Rain = 0
KWOS 100535Z 22006KT 07/06 A3011 RMK A01 T00710060  RH  094%=      5-min Rain = 0
KWOS 100540Z 22006KT 07/06 A3011 RMK A01 T00700058  RH  094%=      5-min Rain = 0
KWOS 100545Z 23006KT 07/06 A3011 RMK A01 T00690058  RH  095%=      5-min Rain = 0
KWOS 100550Z 23007KT 07/06 A301 RMK A01 T00720061  RH  095%=      5-min Rain = 0
KWOS 100555Z 23007KT 07/06 A301 RMK A01 T00730060  RH  094%=      5-min Rain = 0

Page generated in 0.0096 seconds.